Aérodrome :
LOGIN :

S'inscrire | Disclaimer

   EN    FR    IT 

 










Légende :    VFR   VFR Marginal   IFR   IFR Intensif   IFR Très Intensif
Visi : 
Plafond : 
>= 8 km
>= 3000ft
5 à 8 km
1000 à 3000 ft
1500m à 5 km
500 à 1000 ft
800 à 1500m
200 à 500 ft
< 800m
< 200 ft
Symboles :   Orages  Brouillard  Fortes neiges  Fortes précipitations  Vent > 20 kt
SIGMETs :   Divers  Orages  Givrage  Turbulence  Onde Orograph.  Cendres Volcan.






- Altitude de l'aérodrome : 140 ft
- Code IATA : NYO


ESKN - Skavsta

DERNIER METAR :
  • 290550Z 21003KT 8000 -DZ SCT009 BKN023 13/13 Q1015

METARs EXPIRÉS :
  • 290520Z 20003KT 160V240 7000 -RADZ FEW009 BKN017 13/13 Q1015 REDZ
  • 290450Z 19004KT 5000 -RADZ BKN011 13/13 Q1015
  • 290420Z 16003KT 3300 -RADZ VV006 13/13 Q1015
  • 290350Z 16002KT 2600 -DZ BR BKN002 13/13 Q1015
  • 290320Z 17003KT 2500 BR SCT002 BKN007 13/13 Q1015

TAF TAF ESKN
Valide du 29 à 06h jusqu'au 30 à 06h UTC


290530Z 2906/3006 10008KT 5000 OVC010
PROB40 2906/2909 1200 -RADZ BR OVC004
BECMG 2909/2911 BKN015
PROB40 2923/3006 4000 BR BKN004



MET'MAP, la Météo Aéronautique d'un coup d'oeil ! - Copyright ORBIFLY Décembre 2007 - Disclaimer

ORBIFLY MET'MAP TEAM :

Programmation & Développement : Alexandra Zaïnal
Sur une idée originale de : Baudouin d'Aumeries
Assistance à la programmation : Marc-Olivier Méhu
Soutien technique & logistique : Manuel Goepfert

Contact : metmap@orbifly.com




SOURCES & CREDITS :

   NOAA